Aérodrome :
LOGIN :

S'inscrire | Disclaimer

   EN    FR    IT 

 










Légende :    VFR   VFR Marginal   IFR   IFR Intensif   IFR Très Intensif
Visi : 
Plafond : 
>= 8 km
>= 3000ft
5 à 8 km
1000 à 3000 ft
1500m à 5 km
500 à 1000 ft
800 à 1500m
200 à 500 ft
< 800m
< 200 ft
Symboles :   Orages  Brouillard  Fortes neiges  Fortes précipitations  Vent > 20 kt
SIGMETs :   Divers  Orages  Givrage  Turbulence  Onde Orograph.  Cendres Volcan.






- Altitude de l'aérodrome : 1496 ft
- Code IATA : SBZ


LRSB - Sibiu

DERNIER METAR :
  • 260300Z VRB02KT 9999 FEW030 M00/M01 Q1022 R27/19//95

METARs EXPIRÉS :
  • 260230Z AUTO VRB01KT 6000 OVC030/// M00/M01 Q1022
  • 260200Z VRB01KT CAVOK M01/M01 Q1023 R27/19//95
  • 260130Z 00000KT CAVOK M01/M01 Q1023 R27/19//95
  • 260100Z VRB02KT CAVOK M02/M02 Q1023 R27/19//95
  • 260030Z VRB01KT CAVOK M02/M03 Q1023 R27/19//95

TAF TAF LRSB
Valide du 26 à 00h jusqu'au 27 à 00h UTC


252300Z 2600/2624 VRB04KT CAVOK
TEMPO 2600/2607 5000 BR
BECMG 2618/2620 5000 BR
TEMPO 2621/2624 1500 BR BKN005



MET'MAP, la Météo Aéronautique d'un coup d'oeil ! - Copyright ORBIFLY Décembre 2007 - Disclaimer

ORBIFLY MET'MAP TEAM :

Programmation & Développement : Alexandra Zaïnal
Sur une idée originale de : Baudouin d'Aumeries
Assistance à la programmation : Marc-Olivier Méhu
Soutien technique & logistique : Manuel Goepfert

Contact : metmap@orbifly.com




SOURCES & CREDITS :

   NOAA